Página principal
METAR-TAF:

METAR-TAF

Aeroportos :

Islamabad, Paquistão

Aeroporto Internacional Benazir Bhutto

latitude: 33-37N, longitude: 073-06E, altura: 507 m

Observação actual do tempo

O boletim foi feito há 19 minutos, às 21:00 UTC
Vento 8 kt de nordeste
Temperatura 29°C
Humidade 37%
Pressão 1001 hPa
Visibilidade: 5000 m

METAR: OPRN 272100Z 05008KT 5000 NSC 29/13 Q1001.1/29.56

Hora: 02:19 (21:19 UTC)

Previsão

O boletim foi feito há 6 horas e 19 minutos, às 15:00 UTC
Previsão válida de 27 às 18 UTC a 28 às 09 UTC
Vento 10 kt de sudoeste com rajadas de 20 kt
Visibilidade: 5000 m
Poucas nuvensa uma altura de 4000 ft
Temporariamente
de 28 às 02 UTC a 28 às 06 UTC
Vento 10 kt de sudoeste com rajadas de 20 kt
Visibilidade: 3000 m
Poucas nuvensa uma altura de 4000 ft
bruma

TAF: OPRN 271500Z 2718/2809 23010G20KT 5000 FEW040 TEMPO 2802/2806 23010G20KT 3000 HZ FEW040

Observações e previsões do tempo de mais de 4000 aeroportos (mensagens METAR e TAF).

As estações disponíveis são os pontos amarelos e vermelhos sobre o mapa.

Mova o rato sobre o mapa para ver o nome da estação.

Depois clique no ponto para visualizar as observações e previsões meteorológicas.

Para alterar o mapa : clique nos botões verdes com uma cruz preta para aumentar o zoom; no botão verde com uma pitada de zoom; ou nas setas verdes para mapas adjacentes.


METAR-TAF: